Huron Regional Airport Huron US
ICAO: KHON
IATA: HON
Category: Medium
Scheduled Services: Yes

Elevation: 1289 ft
TransAlt. 18000 ft.

Airport Communications:
ASOS:118.125
MINNEAPOLIS CNTR:126.25
CTAF:123.6
RDO:122.1
RDO:122.2
UNICOM:123

KHON Zoom In..

Runways:

(A) RW 12 length 7201 ft width 100 ft
ILS 110.30 / hdg 121

(B) RW 17 length 5000 ft width 75 ft
---- / hdg 173

(C) RW 30 length 7201 ft width 100 ft
---- / hdg 301

(D) RW 35 length 5000 ft width 75 ft
---- / hdg 353

Location; KHON
Day. 20 / Time. 19.55 Zulu
* Altimeter: 29.97
* Temperature: 27° c. 80.6°f.
* Wind from: 350° Speed 10 kn.
Dewpoint: 18° c.
Visibility: 10 Statute Miles.
Clouds: Few 3600 ft.
Clouds: Scattered 4700 ft.

KHON 201955Z AUTO 35010KT 10SM FEW036 SCT047 27/18 A2997 RMK AO2 SLP143 T02670178


Wind From 350°
Speed 10 kn.

 
 
jpsmedia.com for Web Design worldairports.se 2018   terms of use